Terminal Aerodrome Forecast
Issued by NWS

Home | Current Version | Previous Version | Text Only | Print | Product List | Glossary On
Versions: 1 2 3 4 5 6 7 8 9 10 11 12 13 14 15 16 17
000
FTUS46 KMTR 200740 AAA
TAFSTS
TAF AMD
KSTS 200740Z 2008/2106 16012KT 5SM -RA BR OVC012
      TEMPO 2008/2009 2SM +TSRA OVC012CB
     FM200900 16010G15KT 2SM RA BR OVC006
     FM210300 16015G22KT 5SM -RA BKN008 OVC015=

USA.gov is the U.S. government's official web portal to all federal, state and local government web resources and services.